createdAt,value
2023-06-20T00:01:45.405Z,21.84
2023-06-20T00:04:12.390Z,21.82
2023-06-20T00:06:39.329Z,21.71
2023-06-20T00:09:06.264Z,21.68
2023-06-20T00:11:33.214Z,21.66
2023-06-20T00:14:00.185Z,21.62
2023-06-20T00:16:27.159Z,21.44
2023-06-20T00:18:58.129Z,21.54
2023-06-20T00:21:27.081Z,21.46
2023-06-20T00:23:55.512Z,21.19
2023-06-20T00:26:23.007Z,21.24
2023-06-20T00:28:53.429Z,21.17
2023-06-20T00:31:20.432Z,21.16
2023-06-20T00:33:49.310Z,21.02
2023-06-20T00:36:16.436Z,21.04
2023-06-20T00:38:49.793Z,21.03
2023-06-20T00:41:17.978Z,21.01
2023-06-20T00:43:46.371Z,20.96
2023-06-20T00:46:19.164Z,20.88
2023-06-20T00:48:48.032Z,20.84
2023-06-20T00:51:16.807Z,20.86
2023-06-20T00:53:44.972Z,20.84
2023-06-20T00:56:12.279Z,20.79
2023-06-20T00:58:39.436Z,20.80
2023-06-20T01:01:07.303Z,20.61
2023-06-20T01:03:38.644Z,20.76
2023-06-20T01:06:10.667Z,20.77
2023-06-20T01:09:04.057Z,20.70
2023-06-20T01:12:01.704Z,20.62
2023-06-20T01:14:50.587Z,20.69
2023-06-20T01:17:39.785Z,20.67
2023-06-20T01:20:23.780Z,20.58
2023-06-20T01:23:08.354Z,20.34
2023-06-20T01:26:18.306Z,20.34
2023-06-20T01:28:51.660Z,20.11
2023-06-20T01:31:29.599Z,20.34
2023-06-20T01:34:18.064Z,20.36
2023-06-20T01:36:53.283Z,20.35
2023-06-20T01:39:27.213Z,20.36
2023-06-20T01:41:58.870Z,20.36
2023-06-20T01:44:28.680Z,20.34
2023-06-20T01:46:57.881Z,20.36
2023-06-20T01:49:27.573Z,20.35
2023-06-20T01:51:57.187Z,20.38
2023-06-20T01:54:30.925Z,20.37
2023-06-20T01:56:58.758Z,20.35
2023-06-20T01:59:28.598Z,20.33
2023-06-20T02:01:58.048Z,20.25
2023-06-20T02:04:26.489Z,20.23
2023-06-20T02:06:54.426Z,20.30
2023-06-20T02:09:21.766Z,20.28
2023-06-20T02:11:49.600Z,20.27
2023-06-20T02:14:17.141Z,20.23
2023-06-20T02:16:46.040Z,20.20
2023-06-20T02:19:13.100Z,20.21
2023-06-20T02:21:43.340Z,20.11
2023-06-20T02:24:13.484Z,20.14
2023-06-20T02:26:43.826Z,20.10
2023-06-20T02:29:12.560Z,20.07
2023-06-20T02:31:47.755Z,20.05
2023-06-20T02:34:20.199Z,20.04
2023-06-20T02:36:49.109Z,20.01
2023-06-20T02:39:16.170Z,20.00
2023-06-20T02:41:43.970Z,19.86
2023-06-20T02:44:10.912Z,19.94
2023-06-20T02:46:52.788Z,19.91
2023-06-20T02:49:42.206Z,19.88
2023-06-20T02:52:45.029Z,19.82
2023-06-20T02:55:39.771Z,19.75
2023-06-20T02:58:13.811Z,19.70
2023-06-20T03:00:45.957Z,19.68
2023-06-20T03:03:20.750Z,19.67
2023-06-20T03:05:49.641Z,19.64
2023-06-20T03:08:22.246Z,19.64
2023-06-20T03:10:50.432Z,19.58
2023-06-20T03:13:17.544Z,19.63
2023-06-20T03:15:50.946Z,19.70
2023-06-20T03:18:19.804Z,19.67
2023-06-20T03:20:49.544Z,19.63
2023-06-20T03:23:17.783Z,19.68
2023-06-20T03:25:46.170Z,19.67
2023-06-20T03:28:13.826Z,19.66
2023-06-20T03:30:43.905Z,19.68
2023-06-20T03:33:11.532Z,19.66
2023-06-20T03:35:38.966Z,19.55
2023-06-20T03:38:06.223Z,19.47
2023-06-20T03:40:33.841Z,19.42
2023-06-20T03:43:00.821Z,19.41
2023-06-20T03:45:28.381Z,19.45
2023-06-20T03:47:56.528Z,19.49
2023-06-20T03:50:23.586Z,19.52
2023-06-20T03:52:51.223Z,19.53
2023-06-20T03:55:18.209Z,19.58
2023-06-20T03:57:45.214Z,19.64
2023-06-20T04:00:13.673Z,19.69
2023-06-20T04:02:45.219Z,19.76
2023-06-20T04:05:13.240Z,19.83
2023-06-20T04:07:44.154Z,19.96
2023-06-20T04:10:13.543Z,20.21
2023-06-20T04:12:41.904Z,20.52
2023-06-20T04:15:10.081Z,20.64
2023-06-20T04:17:38.666Z,20.94
2023-06-20T04:20:13.251Z,20.84
2023-06-20T04:22:51.202Z,21.09
2023-06-20T04:25:18.592Z,21.02
2023-06-20T04:27:54.784Z,20.99
2023-06-20T04:30:24.012Z,20.92
2023-06-20T04:32:54.488Z,20.83
2023-06-20T04:35:21.923Z,20.95
2023-06-20T04:37:52.909Z,21.07
2023-06-20T04:40:23.802Z,21.20
2023-06-20T04:42:50.985Z,21.14
2023-06-20T04:45:17.999Z,20.97
2023-06-20T04:47:45.108Z,20.90
2023-06-20T04:50:12.335Z,20.94
2023-06-20T04:52:39.356Z,21.00
2023-06-20T04:55:06.540Z,21.07
2023-06-20T04:57:34.782Z,21.15
2023-06-20T05:00:01.905Z,21.26
2023-06-20T05:02:28.979Z,21.39
2023-06-20T05:04:56.190Z,21.40
2023-06-20T05:07:23.632Z,21.40
2023-06-20T05:09:53.346Z,21.43
2023-06-20T05:12:20.449Z,21.37
2023-06-20T05:14:47.551Z,21.33
2023-06-20T05:17:14.558Z,21.26
2023-06-20T05:19:41.629Z,21.22
2023-06-20T05:22:08.652Z,21.27
2023-06-20T05:24:35.600Z,21.34
2023-06-20T05:27:02.650Z,21.31
2023-06-20T05:29:29.636Z,21.10
2023-06-20T05:31:56.715Z,21.01
2023-06-20T05:34:23.761Z,20.90
2023-06-20T05:36:50.687Z,20.91
2023-06-20T05:39:17.700Z,20.78
2023-06-20T05:41:44.716Z,20.63
2023-06-20T05:44:11.828Z,20.59
2023-06-20T05:46:38.918Z,20.53
2023-06-20T05:49:10.946Z,20.41
2023-06-20T05:51:38.404Z,20.28
2023-06-20T05:54:05.417Z,20.18
2023-06-20T05:56:32.332Z,20.17
2023-06-20T05:58:59.335Z,20.17
2023-06-20T06:01:26.407Z,20.30
2023-06-20T06:03:53.596Z,20.13
2023-06-20T06:06:20.712Z,20.25
2023-06-20T06:08:47.678Z,20.28
2023-06-20T06:11:14.852Z,20.18
2023-06-20T06:13:41.863Z,20.21
2023-06-20T06:16:09.006Z,20.43
2023-06-20T06:18:36.074Z,20.37
2023-06-20T06:21:03.094Z,20.59
2023-06-20T06:23:30.212Z,20.63
2023-06-20T06:25:57.195Z,20.60
2023-06-20T06:28:25.151Z,20.51
2023-06-20T06:30:52.330Z,20.61
2023-06-20T06:33:21.154Z,20.52
2023-06-20T06:35:49.176Z,20.51
2023-06-20T06:38:16.235Z,20.46
2023-06-20T06:40:45.124Z,20.46
2023-06-20T06:43:12.256Z,20.61
2023-06-20T06:45:39.687Z,20.54
2023-06-20T06:48:06.791Z,20.66
2023-06-20T06:50:33.817Z,20.59
2023-06-20T06:53:00.769Z,20.57
2023-06-20T06:55:27.872Z,20.63
2023-06-20T06:57:55.245Z,20.55
2023-06-20T07:00:22.634Z,20.65
2023-06-20T07:02:49.662Z,20.69
2023-06-20T07:05:16.743Z,20.69
2023-06-20T07:07:46.440Z,20.58
2023-06-20T07:10:15.021Z,20.72
2023-06-20T07:12:41.998Z,20.55
2023-06-20T07:15:09.259Z,20.75
2023-06-20T07:17:39.054Z,20.59
2023-06-20T07:20:10.644Z,20.83
2023-06-20T07:22:38.984Z,20.95
2023-06-20T07:25:08.919Z,21.05
2023-06-20T07:27:35.960Z,21.06
2023-06-20T07:30:02.990Z,21.11
2023-06-20T07:32:29.989Z,21.00
2023-06-20T07:34:58.002Z,21.07
2023-06-20T07:37:25.023Z,21.10
2023-06-20T07:39:52.029Z,21.19
2023-06-20T07:42:19.131Z,21.33
2023-06-20T07:44:46.192Z,21.41
2023-06-20T07:47:14.414Z,21.36
2023-06-20T07:49:41.652Z,21.63
2023-06-20T07:52:10.567Z,21.65
2023-06-20T07:54:37.540Z,21.77
2023-06-20T07:57:04.640Z,21.70
2023-06-20T07:59:31.651Z,21.91
2023-06-20T08:01:58.616Z,21.81
2023-06-20T08:04:25.910Z,21.98
2023-06-20T08:06:53.093Z,21.98
2023-06-20T08:09:20.110Z,22.11
2023-06-20T08:11:47.097Z,22.07
2023-06-20T08:14:14.128Z,22.17
2023-06-20T08:16:41.090Z,22.15
2023-06-20T08:19:08.147Z,22.28
2023-06-20T08:21:35.119Z,22.39
2023-06-20T08:24:02.053Z,22.50
2023-06-20T08:26:29.056Z,22.42
2023-06-20T08:28:55.994Z,22.42
2023-06-20T08:31:23.126Z,22.27
2023-06-20T08:33:50.215Z,22.31
2023-06-20T08:36:17.235Z,22.31
2023-06-20T08:38:44.184Z,22.24
2023-06-20T08:41:11.498Z,22.28
2023-06-20T08:43:38.600Z,22.32
2023-06-20T08:46:05.720Z,22.29
2023-06-20T08:48:32.951Z,22.50
2023-06-20T08:50:59.974Z,22.43
2023-06-20T08:53:27.642Z,22.45
2023-06-20T08:55:54.880Z,22.49
2023-06-20T08:58:23.443Z,22.53
2023-06-20T09:00:50.698Z,22.75
2023-06-20T09:03:18.071Z,22.82
2023-06-20T09:05:48.084Z,22.85
2023-06-20T09:08:16.788Z,22.71
2023-06-20T09:10:46.234Z,22.66
2023-06-20T09:13:16.934Z,22.76
2023-06-20T09:15:43.975Z,22.54
2023-06-20T09:18:15.264Z,22.59
2023-06-20T09:20:44.532Z,22.75
2023-06-20T09:23:11.899Z,22.91
2023-06-20T09:25:40.928Z,22.90
2023-06-20T09:28:15.135Z,22.82
2023-06-20T09:30:45.857Z,22.79
2023-06-20T09:33:15.150Z,22.79
2023-06-20T09:35:42.391Z,22.72
2023-06-20T09:38:10.047Z,22.82
2023-06-20T09:40:45.945Z,22.61
2023-06-20T09:43:13.208Z,22.82
2023-06-20T09:45:40.225Z,22.82
2023-06-20T09:48:10.150Z,22.66
2023-06-20T09:50:39.941Z,22.95
2023-06-20T09:53:23.574Z,23.04
2023-06-20T09:55:51.496Z,23.11
2023-06-20T09:58:20.304Z,22.98
2023-06-20T10:00:47.287Z,23.18
2023-06-20T10:03:14.571Z,23.15
2023-06-20T10:05:42.698Z,23.16
2023-06-20T10:08:10.000Z,23.12
2023-06-20T10:10:36.979Z,23.19
2023-06-20T10:13:04.806Z,23.39
2023-06-20T10:15:31.884Z,23.56
2023-06-20T10:17:58.928Z,23.64
2023-06-20T10:20:34.975Z,23.98
2023-06-20T10:23:06.489Z,24.15
2023-06-20T10:25:35.026Z,24.32
2023-06-20T10:28:06.459Z,24.35
2023-06-20T10:30:51.383Z,24.55
2023-06-20T10:33:40.642Z,24.43
2023-06-20T10:36:11.139Z,24.56
2023-06-20T10:38:52.243Z,24.60
2023-06-20T10:41:23.071Z,24.79
2023-06-20T10:43:57.601Z,25.14
2023-06-20T10:46:37.347Z,25.47
2023-06-20T10:49:05.494Z,25.39
2023-06-20T10:51:43.280Z,25.85
2023-06-20T10:54:11.302Z,26.20
2023-06-20T10:56:38.269Z,26.13
2023-06-20T10:59:15.775Z,26.28
2023-06-20T11:01:43.099Z,26.13
2023-06-20T11:04:13.787Z,25.85
2023-06-20T11:06:41.810Z,26.01
2023-06-20T11:09:22.504Z,26.16
2023-06-20T11:11:49.978Z,26.16
2023-06-20T11:14:21.716Z,26.56
2023-06-20T11:16:51.072Z,26.49
2023-06-20T11:21:52.837Z,27.09
2023-06-20T11:24:21.956Z,27.29
2023-06-20T11:26:48.910Z,27.17
2023-06-20T11:29:15.904Z,27.31
2023-06-20T11:31:43.813Z,27.60
2023-06-20T11:34:13.556Z,27.51
2023-06-20T11:36:41.916Z,27.58
2023-06-20T11:39:12.522Z,27.70
2023-06-20T11:41:39.626Z,28.20
2023-06-20T11:44:24.097Z,28.62
2023-06-20T11:46:51.489Z,28.59
2023-06-20T11:49:34.847Z,28.96
2023-06-20T11:52:02.246Z,29.18
2023-06-20T11:54:29.298Z,29.05
2023-06-20T11:56:56.619Z,28.93
2023-06-20T11:59:25.168Z,28.61
2023-06-20T12:01:53.228Z,28.79
2023-06-20T12:04:22.072Z,28.68
2023-06-20T12:06:54.396Z,29.13
2023-06-20T12:09:25.045Z,29.44
2023-06-20T12:11:56.144Z,29.52
2023-06-20T12:14:25.979Z,29.83
2023-06-20T12:16:53.691Z,29.91
2023-06-20T12:19:21.134Z,29.79
2023-06-20T12:21:48.868Z,29.47
2023-06-20T12:24:17.500Z,29.44
2023-06-20T12:26:48.339Z,29.23
2023-06-20T12:29:15.636Z,29.10
2023-06-20T12:31:42.586Z,29.06
2023-06-20T12:34:09.989Z,29.02
2023-06-20T12:36:37.137Z,29.15
2023-06-20T12:39:04.953Z,29.47
2023-06-20T12:41:36.022Z,29.74
2023-06-20T12:44:04.100Z,30.05
2023-06-20T12:46:31.644Z,29.94
2023-06-20T12:48:59.485Z,30.03
2023-06-20T12:51:26.507Z,29.88
2023-06-20T12:53:57.471Z,29.83
2023-06-20T12:56:24.598Z,29.92
2023-06-20T12:58:51.673Z,29.62
2023-06-20T13:01:21.544Z,29.56
2023-06-20T13:03:48.812Z,29.84
2023-06-20T13:06:19.368Z,30.15
2023-06-20T13:08:46.510Z,29.97
2023-06-20T13:11:15.415Z,30.07
2023-06-20T13:13:42.527Z,29.92
2023-06-20T13:16:09.600Z,30.20
2023-06-20T13:18:36.637Z,30.38
2023-06-20T13:21:03.743Z,30.19
2023-06-20T13:23:30.833Z,29.78
2023-06-20T13:25:57.922Z,29.52
2023-06-20T13:28:24.875Z,29.48
2023-06-20T13:30:51.979Z,29.36
2023-06-20T13:33:18.966Z,29.39
2023-06-20T13:35:45.910Z,29.44
2023-06-20T13:38:14.403Z,29.25
2023-06-20T13:40:41.369Z,29.37
2023-06-20T13:43:08.346Z,29.39
2023-06-20T13:45:35.566Z,29.86
2023-06-20T13:48:05.262Z,30.21
2023-06-20T13:50:32.350Z,30.31
2023-06-20T13:52:59.276Z,30.26
2023-06-20T13:55:26.237Z,30.23
2023-06-20T13:57:53.507Z,30.19
2023-06-20T14:00:20.419Z,30.24
2023-06-20T14:02:48.095Z,30.51
2023-06-20T14:05:17.497Z,30.61
2023-06-20T14:07:47.598Z,30.67
2023-06-20T14:10:16.618Z,30.56
2023-06-20T14:12:43.508Z,30.79
2023-06-20T14:15:10.804Z,30.89
2023-06-20T14:17:38.200Z,31.10
2023-06-20T14:20:09.013Z,31.11
2023-06-20T14:22:36.425Z,31.00
2023-06-20T14:25:04.196Z,31.22
2023-06-20T14:27:31.272Z,31.28
2023-06-20T14:30:00.945Z,31.57
2023-06-20T14:32:28.063Z,31.49
2023-06-20T14:34:55.010Z,31.32
2023-06-20T14:37:22.146Z,31.55
2023-06-20T14:39:49.181Z,31.59
2023-06-20T14:42:17.765Z,31.57
2023-06-20T14:44:46.817Z,31.54
2023-06-20T14:47:13.867Z,31.56
2023-06-20T14:49:43.644Z,31.30
2023-06-20T14:52:11.995Z,31.47
2023-06-20T14:54:39.162Z,31.47
2023-06-20T14:57:06.800Z,31.31
2023-06-20T14:59:33.781Z,31.19
2023-06-20T15:02:00.954Z,31.27
2023-06-20T15:04:28.410Z,31.34
2023-06-20T15:06:55.330Z,31.16
2023-06-20T15:09:22.816Z,31.02
2023-06-20T15:11:49.878Z,30.95
2023-06-20T15:14:17.062Z,31.05
2023-06-20T15:16:44.126Z,31.25
2023-06-20T15:19:11.876Z,31.16
2023-06-20T15:21:38.789Z,31.27
2023-06-20T15:24:05.838Z,31.53
2023-06-20T15:26:32.813Z,31.67
2023-06-20T15:28:59.823Z,31.67
2023-06-20T15:31:26.825Z,31.82
2023-06-20T15:33:53.792Z,31.79
2023-06-20T15:36:21.646Z,31.57
2023-06-20T15:38:48.639Z,31.44
2023-06-20T15:41:15.972Z,31.43
2023-06-20T15:43:42.954Z,31.25
2023-06-20T15:46:10.077Z,31.18
2023-06-20T15:48:56.463Z,31.17
2023-06-20T15:51:25.313Z,31.18
2023-06-20T15:53:52.748Z,31.31
2023-06-20T15:56:20.780Z,31.25
2023-06-20T15:58:47.852Z,31.24
2023-06-20T16:01:15.095Z,31.03
2023-06-20T16:03:42.599Z,31.14
2023-06-20T16:06:09.673Z,31.18
2023-06-20T16:08:36.697Z,31.18
2023-06-20T16:11:03.775Z,31.10
2023-06-20T16:13:31.654Z,31.02
2023-06-20T16:15:58.685Z,31.18
2023-06-20T16:18:25.695Z,31.17
2023-06-20T16:20:52.659Z,31.37
2023-06-20T16:23:20.393Z,31.34
2023-06-20T16:25:47.502Z,31.20
2023-06-20T16:28:14.545Z,31.23
2023-06-20T16:30:41.843Z,31.26
2023-06-20T16:33:10.825Z,31.04
2023-06-20T16:35:38.020Z,31.00
2023-06-20T16:38:04.998Z,30.85
2023-06-20T16:40:31.999Z,30.84
2023-06-20T16:42:59.042Z,30.92
2023-06-20T16:45:26.044Z,30.84
2023-06-20T16:47:53.248Z,30.95
2023-06-20T16:50:20.388Z,30.77
2023-06-20T16:52:47.485Z,30.73
2023-06-20T16:55:14.652Z,30.72
2023-06-20T16:57:41.628Z,30.78
2023-06-20T17:00:09.540Z,30.74
2023-06-20T17:02:37.033Z,30.52
2023-06-20T17:05:04.433Z,30.46
2023-06-20T17:07:31.343Z,30.72
2023-06-20T17:09:58.338Z,30.64
2023-06-20T17:12:25.298Z,30.51
2023-06-20T17:14:52.364Z,30.62
2023-06-20T17:17:19.336Z,30.63
2023-06-20T17:19:46.266Z,30.38
2023-06-20T17:22:13.301Z,30.41
2023-06-20T17:24:43.024Z,30.34
2023-06-20T17:27:13.742Z,30.28
2023-06-20T17:29:42.122Z,30.03
2023-06-20T17:32:10.637Z,30.20
2023-06-20T17:34:37.773Z,29.95
2023-06-20T17:37:06.810Z,29.71
2023-06-20T17:39:33.885Z,29.67
2023-06-20T17:42:00.896Z,29.55
2023-06-20T17:44:30.758Z,29.48
2023-06-20T17:46:57.872Z,29.38
2023-06-20T17:49:25.256Z,29.34
2023-06-20T17:51:52.284Z,29.29
2023-06-20T17:54:19.370Z,29.36
2023-06-20T17:56:49.213Z,29.43
2023-06-20T17:59:16.710Z,29.35
2023-06-20T18:01:43.844Z,29.51
2023-06-20T18:04:12.779Z,29.40
2023-06-20T18:06:40.743Z,29.42
2023-06-20T18:09:08.462Z,29.30
2023-06-20T18:11:35.657Z,29.38
2023-06-20T18:14:02.704Z,29.37
2023-06-20T18:16:29.756Z,29.17
2023-06-20T18:18:56.826Z,29.12
2023-06-20T18:21:23.816Z,29.15
2023-06-20T18:23:50.864Z,29.15
2023-06-20T18:26:18.003Z,29.05
2023-06-20T18:28:44.949Z,28.86
2023-06-20T18:31:11.992Z,28.76
2023-06-20T18:33:39.883Z,28.57
2023-06-20T18:36:08.194Z,28.62
2023-06-20T18:38:35.401Z,28.54
2023-06-20T18:41:02.401Z,28.39
2023-06-20T18:43:29.344Z,28.38
2023-06-20T18:45:57.098Z,28.24
2023-06-20T18:48:24.114Z,28.23
2023-06-20T18:51:00.049Z,28.22
2023-06-20T18:53:27.285Z,28.13
2023-06-20T18:55:54.293Z,27.99
2023-06-20T18:58:21.285Z,28.09
2023-06-20T19:00:49.465Z,28.09
2023-06-20T19:03:18.819Z,28.06
2023-06-20T19:05:46.361Z,27.95
2023-06-20T19:08:13.371Z,27.94
2023-06-20T19:10:40.423Z,27.88
2023-06-20T19:13:07.493Z,27.90
2023-06-20T19:15:34.451Z,27.84
2023-06-20T19:18:01.405Z,27.67
2023-06-20T19:20:28.705Z,27.56
2023-06-20T19:22:58.512Z,27.43
2023-06-20T19:25:25.576Z,27.56
2023-06-20T19:27:52.731Z,27.52
2023-06-20T19:30:20.562Z,27.41
2023-06-20T19:32:48.760Z,27.37
2023-06-20T19:35:16.849Z,27.10
2023-06-20T19:37:47.068Z,27.26
2023-06-20T19:40:15.228Z,27.26
2023-06-20T19:42:42.251Z,27.15
2023-06-20T19:45:09.525Z,27.19
2023-06-20T19:47:36.494Z,27.22
2023-06-20T19:50:03.794Z,27.17
2023-06-20T19:52:30.820Z,27.18
2023-06-20T19:54:57.883Z,27.23
2023-06-20T19:57:26.864Z,27.12
2023-06-20T19:59:54.021Z,26.85
2023-06-20T20:02:25.593Z,26.86
2023-06-20T20:04:52.797Z,26.82
2023-06-20T20:07:19.882Z,26.63
2023-06-20T20:09:49.595Z,26.56
2023-06-20T20:12:16.639Z,26.54
2023-06-20T20:14:43.651Z,26.46
2023-06-20T20:17:10.931Z,26.59
2023-06-20T20:19:38.045Z,26.58
2023-06-20T20:22:05.503Z,26.42
2023-06-20T20:24:32.541Z,26.58
2023-06-20T20:26:59.635Z,26.60
2023-06-20T20:29:26.692Z,26.61
2023-06-20T20:31:53.809Z,26.68
2023-06-20T20:34:21.083Z,26.60
2023-06-20T20:36:48.184Z,26.69
2023-06-20T20:39:15.521Z,26.67
2023-06-20T20:41:43.052Z,26.67
2023-06-20T20:44:10.558Z,26.66
2023-06-20T20:46:37.612Z,26.63
2023-06-20T20:49:04.884Z,26.69
2023-06-20T20:51:33.610Z,26.29
2023-06-20T20:54:01.001Z,25.89
2023-06-20T20:56:27.936Z,25.66
2023-06-20T20:58:55.416Z,25.68
2023-06-20T21:01:22.667Z,25.80
2023-06-20T21:03:50.556Z,25.61
2023-06-20T21:06:17.872Z,25.71
2023-06-20T21:08:45.044Z,25.17
2023-06-20T21:11:12.124Z,24.73
2023-06-20T21:13:39.115Z,24.28
2023-06-20T21:16:06.095Z,23.98
2023-06-20T21:18:33.213Z,24.00
2023-06-20T21:21:00.349Z,24.09
2023-06-20T21:23:27.321Z,23.71
2023-06-20T21:25:54.405Z,23.40
2023-06-20T21:28:22.866Z,23.45
2023-06-20T21:30:51.090Z,22.86
2023-06-20T21:33:18.011Z,22.95
2023-06-20T21:35:44.983Z,23.14
2023-06-20T21:38:11.975Z,23.21
2023-06-20T21:40:38.908Z,23.47
2023-06-20T21:43:07.912Z,23.66
2023-06-20T21:45:34.884Z,23.70
2023-06-20T21:48:01.935Z,23.78
2023-06-20T21:50:29.968Z,23.92
2023-06-20T21:52:57.022Z,24.09
2023-06-20T21:55:23.932Z,24.19
2023-06-20T21:57:50.880Z,23.99
2023-06-20T22:00:18.067Z,23.90
2023-06-20T22:02:45.100Z,23.73
2023-06-20T22:05:12.120Z,23.44
2023-06-20T22:07:39.062Z,23.50
2023-06-20T22:10:06.996Z,23.38
2023-06-20T22:12:35.006Z,23.27
2023-06-20T22:15:03.095Z,23.31
2023-06-20T22:17:31.006Z,23.30
2023-06-20T22:19:58.009Z,23.27
2023-06-20T22:22:24.906Z,23.27
2023-06-20T22:24:51.852Z,23.24
2023-06-20T22:27:19.004Z,23.26
2023-06-20T22:29:45.972Z,23.31
2023-06-20T22:32:12.986Z,23.20
2023-06-20T22:34:40.004Z,23.28
2023-06-20T22:37:07.082Z,23.32
2023-06-20T22:39:34.046Z,23.24
2023-06-20T22:42:01.108Z,23.27
2023-06-20T22:44:28.398Z,23.28
2023-06-20T22:46:58.192Z,23.28
2023-06-20T22:49:25.881Z,23.32
2023-06-20T22:51:53.400Z,23.17
2023-06-20T22:54:22.977Z,23.13
2023-06-20T22:56:50.465Z,22.82
2023-06-20T22:59:19.080Z,22.75
2023-06-20T23:01:47.599Z,22.57
2023-06-20T23:04:14.697Z,22.42
2023-06-20T23:06:41.651Z,22.30
2023-06-20T23:09:08.628Z,22.57
2023-06-20T23:11:36.453Z,22.66
2023-06-20T23:14:04.342Z,22.52
2023-06-20T23:16:32.305Z,22.47
2023-06-20T23:18:59.367Z,22.15
2023-06-20T23:21:26.447Z,22.24
2023-06-20T23:23:53.591Z,22.19
2023-06-20T23:26:22.275Z,22.18
2023-06-20T23:28:53.547Z,22.21
2023-06-20T23:31:25.366Z,22.41
2023-06-20T23:33:52.404Z,22.51
2023-06-20T23:36:19.420Z,22.42
2023-06-20T23:38:46.377Z,22.44
2023-06-20T23:41:13.355Z,22.45
2023-06-20T23:43:44.645Z,22.29
2023-06-20T23:46:13.018Z,22.43
2023-06-20T23:48:40.008Z,22.07
2023-06-20T23:51:06.966Z,22.02
2023-06-20T23:53:34.138Z,21.92
2023-06-20T23:56:01.180Z,21.86
2023-06-20T23:58:32.517Z,21.85
